sensor_id;sensor_type;location;lat;lon;timestamp;P1;durP1;ratioP1;P2;durP2;ratioP2
15528;SDS011;7866;52.280;9.500;2023-08-06T00:02:28;1.63;;;1.35;;
15528;SDS011;7866;52.280;9.500;2023-08-06T00:07:30;2.05;;;1.80;;
15528;SDS011;7866;52.280;9.500;2023-08-06T00:12:32;4.05;;;1.52;;
15528;SDS011;7866;52.280;9.500;2023-08-06T00:17:35;1.83;;;1.40;;
15528;SDS011;7866;52.280;9.500;2023-08-06T00:22:37;1.98;;;1.48;;
15528;SDS011;7866;52.280;9.500;2023-08-06T00:27:39;3.20;;;1.40;;
15528;SDS011;7866;52.280;9.500;2023-08-06T00:32:42;1.17;;;1.08;;
15528;SDS011;7866;52.280;9.500;2023-08-06T00:37:45;1.58;;;1.48;;
15528;SDS011;7866;52.280;9.500;2023-08-06T00:42:47;1.20;;;1.10;;
15528;SDS011;7866;52.280;9.500;2023-08-06T00:47:50;2.80;;;1.40;;
15528;SDS011;7866;52.280;9.500;2023-08-06T00:52:53;2.25;;;1.30;;
15528;SDS011;7866;52.280;9.500;2023-08-06T00:57:55;1.45;;;1.35;;
15528;SDS011;7866;52.280;9.500;2023-08-06T01:02:58;4.25;;;1.50;;
15528;SDS011;7866;52.280;9.500;2023-08-06T01:08:06;1.48;;;1.30;;
15528;SDS011;7866;52.280;9.500;2023-08-06T01:13:18;2.08;;;1.25;;
15528;SDS011;7866;52.280;9.500;2023-08-06T01:18:26;1.20;;;1.20;;
15528;SDS011;7866;52.280;9.500;2023-08-06T01:23:29;1.30;;;1.20;;
15528;SDS011;7866;52.280;9.500;2023-08-06T01:28:33;1.63;;;1.50;;
15528;SDS011;7866;52.280;9.500;2023-08-06T01:33:43;1.65;;;1.20;;
15528;SDS011;7866;52.280;9.500;2023-08-06T01:38:48;1.00;;;1.00;;
15528;SDS011;7866;52.280;9.500;2023-08-06T01:43:52;1.05;;;1.05;;
15528;SDS011;7866;52.280;9.500;2023-08-06T01:48:53;1.20;;;1.20;;
15528;SDS011;7866;52.280;9.500;2023-08-06T01:53:56;1.30;;;1.20;;
15528;SDS011;7866;52.280;9.500;2023-08-06T01:58:58;1.50;;;1.33;;
15528;SDS011;7866;52.280;9.500;2023-08-06T02:04:00;4.07;;;2.33;;
15528;SDS011;7866;52.280;9.500;2023-08-06T02:09:03;2.85;;;2.65;;
15528;SDS011;7866;52.280;9.500;2023-08-06T02:14:04;2.63;;;2.47;;
15528;SDS011;7866;52.280;9.500;2023-08-06T02:19:06;2.33;;;2.13;;
15528;SDS011;7866;52.280;9.500;2023-08-06T02:24:09;3.00;;;2.38;;
15528;SDS011;7866;52.280;9.500;2023-08-06T02:29:11;2.15;;;2.00;;
15528;SDS011;7866;52.280;9.500;2023-08-06T02:34:12;1.95;;;1.85;;
15528;SDS011;7866;52.280;9.500;2023-08-06T02:39:15;1.80;;;1.70;;
15528;SDS011;7866;52.280;9.500;2023-08-06T02:44:17;1.85;;;1.75;;
15528;SDS011;7866;52.280;9.500;2023-08-06T02:49:19;4.45;;;1.58;;
15528;SDS011;7866;52.280;9.500;2023-08-06T02:54:22;1.42;;;1.42;;
15528;SDS011;7866;52.280;9.500;2023-08-06T02:59:24;1.90;;;1.80;;
15528;SDS011;7866;52.280;9.500;2023-08-06T03:04:25;2.47;;;1.80;;
15528;SDS011;7866;52.280;9.500;2023-08-06T03:09:28;1.88;;;1.77;;
15528;SDS011;7866;52.280;9.500;2023-08-06T03:14:30;2.10;;;1.80;;
15528;SDS011;7866;52.280;9.500;2023-08-06T03:19:31;2.00;;;1.90;;
15528;SDS011;7866;52.280;9.500;2023-08-06T03:24:34;2.33;;;1.80;;
15528;SDS011;7866;52.280;9.500;2023-08-06T03:29:36;2.17;;;1.60;;
15528;SDS011;7866;52.280;9.500;2023-08-06T03:34:37;1.58;;;1.48;;
15528;SDS011;7866;52.280;9.500;2023-08-06T03:39:40;1.23;;;1.23;;
15528;SDS011;7866;52.280;9.500;2023-08-06T03:44:42;1.42;;;1.30;;
15528;SDS011;7866;52.280;9.500;2023-08-06T03:49:44;1.13;;;1.13;;
15528;SDS011;7866;52.280;9.500;2023-08-06T03:54:46;1.95;;;1.50;;
15528;SDS011;7866;52.280;9.500;2023-08-06T03:59:48;1.30;;;1.30;;
15528;SDS011;7866;52.280;9.500;2023-08-06T04:04:50;2.80;;;1.42;;
15528;SDS011;7866;52.280;9.500;2023-08-06T04:09:57;1.17;;;1.15;;
15528;SDS011;7866;52.280;9.500;2023-08-06T04:15:00;1.20;;;1.20;;
15528;SDS011;7866;52.280;9.500;2023-08-06T04:20:02;1.50;;;1.17;;
15528;SDS011;7866;52.280;9.500;2023-08-06T04:25:06;1.00;;;1.00;;
15528;SDS011;7866;52.280;9.500;2023-08-06T04:30:08;1.63;;;1.15;;
15528;SDS011;7866;52.280;9.500;2023-08-06T04:35:12;1.55;;;1.40;;
15528;SDS011;7866;52.280;9.500;2023-08-06T04:40:15;1.90;;;1.30;;
15528;SDS011;7866;52.280;9.500;2023-08-06T04:45:17;1.50;;;1.40;;
15528;SDS011;7866;52.280;9.500;2023-08-06T04:50:19;1.35;;;1.30;;
15528;SDS011;7866;52.280;9.500;2023-08-06T04:55:22;1.45;;;1.20;;
15528;SDS011;7866;52.280;9.500;2023-08-06T05:00:23;1.92;;;1.20;;
15528;SDS011;7866;52.280;9.500;2023-08-06T05:05:25;2.50;;;1.33;;
15528;SDS011;7866;52.280;9.500;2023-08-06T05:10:28;1.00;;;0.93;;
15528;SDS011;7866;52.280;9.500;2023-08-06T05:15:30;2.30;;;1.35;;
15528;SDS011;7866;52.280;9.500;2023-08-06T05:20:33;2.47;;;1.40;;
15528;SDS011;7866;52.280;9.500;2023-08-06T05:25:38;1.35;;;1.25;;
15528;SDS011;7866;52.280;9.500;2023-08-06T05:30:40;1.30;;;1.30;;
15528;SDS011;7866;52.280;9.500;2023-08-06T05:35:42;1.50;;;1.40;;
15528;SDS011;7866;52.280;9.500;2023-08-06T05:40:45;1.20;;;1.20;;
15528;SDS011;7866;52.280;9.500;2023-08-06T05:45:49;1.80;;;1.70;;
15528;SDS011;7866;52.280;9.500;2023-08-06T05:50:51;1.95;;;1.80;;
15528;SDS011;7866;52.280;9.500;2023-08-06T05:55:54;2.65;;;1.75;;
15528;SDS011;7866;52.280;9.500;2023-08-06T06:00:56;3.08;;;2.10;;
15528;SDS011;7866;52.280;9.500;2023-08-06T06:05:58;1.80;;;1.70;;
15528;SDS011;7866;52.280;9.500;2023-08-06T06:11:03;2.08;;;1.98;;
15528;SDS011;7866;52.280;9.500;2023-08-06T06:16:04;2.03;;;1.90;;
15528;SDS011;7866;52.280;9.500;2023-08-06T06:21:06;2.00;;;1.90;;
15528;SDS011;7866;52.280;9.500;2023-08-06T06:26:09;2.88;;;2.03;;
15528;SDS011;7866;52.280;9.500;2023-08-06T06:31:11;7.22;;;2.20;;
15528;SDS011;7866;52.280;9.500;2023-08-06T06:36:12;2.08;;;1.95;;
15528;SDS011;7866;52.280;9.500;2023-08-06T06:41:15;2.22;;;2.03;;
15528;SDS011;7866;52.280;9.500;2023-08-06T06:46:17;3.47;;;2.20;;
15528;SDS011;7866;52.280;9.500;2023-08-06T06:51:18;1.70;;;1.60;;
15528;SDS011;7866;52.280;9.500;2023-08-06T06:56:21;4.25;;;1.67;;
15528;SDS011;7866;52.280;9.500;2023-08-06T07:01:23;2.45;;;2.25;;
15528;SDS011;7866;52.280;9.500;2023-08-06T07:06:25;2.30;;;2.10;;
15528;SDS011;7866;52.280;9.500;2023-08-06T07:11:28;2.20;;;2.08;;
15528;SDS011;7866;52.280;9.500;2023-08-06T07:16:30;2.00;;;1.90;;
15528;SDS011;7866;52.280;9.500;2023-08-06T07:21:31;1.80;;;1.70;;
15528;SDS011;7866;52.280;9.500;2023-08-06T07:26:35;2.28;;;1.58;;
15528;SDS011;7866;52.280;9.500;2023-08-06T07:31:36;1.98;;;1.88;;
15528;SDS011;7866;52.280;9.500;2023-08-06T07:36:38;1.58;;;1.48;;
15528;SDS011;7866;52.280;9.500;2023-08-06T07:41:41;2.05;;;1.65;;
15528;SDS011;7866;52.280;9.500;2023-08-06T07:46:42;2.85;;;1.70;;
15528;SDS011;7866;52.280;9.500;2023-08-06T07:51:44;1.70;;;1.60;;
15528;SDS011;7866;52.280;9.500;2023-08-06T07:56:47;1.67;;;1.58;;
15528;SDS011;7866;52.280;9.500;2023-08-06T08:01:48;1.80;;;1.70;;
15528;SDS011;7866;52.280;9.500;2023-08-06T08:06:50;3.60;;;1.60;;
15528;SDS011;7866;52.280;9.500;2023-08-06T08:11:53;2.15;;;1.77;;
15528;SDS011;7866;52.280;9.500;2023-08-06T08:16:55;2.00;;;1.90;;
15528;SDS011;7866;52.280;9.500;2023-08-06T08:21:57;2.20;;;2.10;;
15528;SDS011;7866;52.280;9.500;2023-08-06T08:27:00;1.70;;;1.50;;
15528;SDS011;7866;52.280;9.500;2023-08-06T08:32:01;1.90;;;1.80;;
15528;SDS011;7866;52.280;9.500;2023-08-06T08:37:03;2.00;;;1.90;;
15528;SDS011;7866;52.280;9.500;2023-08-06T08:42:07;1.77;;;1.67;;
15528;SDS011;7866;52.280;9.500;2023-08-06T08:47:11;2.08;;;1.83;;
15528;SDS011;7866;52.280;9.500;2023-08-06T08:52:16;2.08;;;1.90;;
15528;SDS011;7866;52.280;9.500;2023-08-06T08:57:22;1.95;;;1.85;;
15528;SDS011;7866;52.280;9.500;2023-08-06T09:02:23;2.00;;;1.90;;
15528;SDS011;7866;52.280;9.500;2023-08-06T09:07:31;1.80;;;1.70;;
15528;SDS011;7866;52.280;9.500;2023-08-06T09:12:37;2.17;;;1.80;;
15528;SDS011;7866;52.280;9.500;2023-08-06T09:17:39;2.25;;;2.05;;
15528;SDS011;7866;52.280;9.500;2023-08-06T09:22:40;2.22;;;2.03;;
15528;SDS011;7866;52.280;9.500;2023-08-06T09:27:46;2.10;;;2.00;;
15528;SDS011;7866;52.280;9.500;2023-08-06T09:32:48;2.28;;;2.15;;
15528;SDS011;7866;52.280;9.500;2023-08-06T09:37:51;1.88;;;1.77;;
15528;SDS011;7866;52.280;9.500;2023-08-06T09:42:54;2.55;;;1.90;;
15528;SDS011;7866;52.280;9.500;2023-08-06T09:47:56;2.28;;;1.90;;
15528;SDS011;7866;52.280;9.500;2023-08-06T09:52:59;2.05;;;1.83;;
15528;SDS011;7866;52.280;9.500;2023-08-06T09:58:03;1.70;;;1.60;;
15528;SDS011;7866;52.280;9.500;2023-08-06T10:03:05;1.88;;;1.77;;
15528;SDS011;7866;52.280;9.500;2023-08-06T10:08:07;2.00;;;1.85;;
15528;SDS011;7866;52.280;9.500;2023-08-06T10:13:10;1.48;;;1.38;;
15528;SDS011;7866;52.280;9.500;2023-08-06T10:18:14;1.80;;;1.70;;
15528;SDS011;7866;52.280;9.500;2023-08-06T10:23:21;3.45;;;1.90;;
15528;SDS011;7866;52.280;9.500;2023-08-06T10:28:37;1.88;;;1.73;;
15528;SDS011;7866;52.280;9.500;2023-08-06T10:33:40;1.73;;;1.63;;
15528;SDS011;7866;52.280;9.500;2023-08-06T10:38:44;1.73;;;1.50;;
15528;SDS011;7866;52.280;9.500;2023-08-06T10:43:48;2.85;;;1.55;;
15528;SDS011;7866;52.280;9.500;2023-08-06T10:48:49;1.63;;;1.52;;
15528;SDS011;7866;52.280;9.500;2023-08-06T10:53:52;1.50;;;1.48;;
15528;SDS011;7866;52.280;9.500;2023-08-06T10:58:55;1.65;;;1.55;;
15528;SDS011;7866;52.280;9.500;2023-08-06T11:04:00;1.70;;;1.60;;
15528;SDS011;7866;52.280;9.500;2023-08-06T11:09:05;2.00;;;1.90;;
15528;SDS011;7866;52.280;9.500;2023-08-06T11:14:14;2.28;;;1.85;;
15528;SDS011;7866;52.280;9.500;2023-08-06T11:19:16;5.43;;;2.05;;
15528;SDS011;7866;52.280;9.500;2023-08-06T11:24:17;1.98;;;1.88;;
15528;SDS011;7866;52.280;9.500;2023-08-06T11:29:20;1.75;;;1.60;;
15528;SDS011;7866;52.280;9.500;2023-08-06T11:34:23;1.90;;;1.80;;
15528;SDS011;7866;52.280;9.500;2023-08-06T11:39:24;1.88;;;1.73;;
15528;SDS011;7866;52.280;9.500;2023-08-06T11:44:29;1.90;;;1.80;;
15528;SDS011;7866;52.280;9.500;2023-08-06T11:49:39;1.88;;;1.77;;
15528;SDS011;7866;52.280;9.500;2023-08-06T11:54:44;3.20;;;1.90;;
15528;SDS011;7866;52.280;9.500;2023-08-06T11:59:47;1.75;;;1.65;;
15528;SDS011;7866;52.280;9.500;2023-08-06T12:04:59;1.73;;;1.63;;
15528;SDS011;7866;52.280;9.500;2023-08-06T12:10:05;1.83;;;1.73;;
15528;SDS011;7866;52.280;9.500;2023-08-06T12:15:09;1.40;;;1.30;;
15528;SDS011;7866;52.280;9.500;2023-08-06T12:20:11;2.10;;;1.90;;
15528;SDS011;7866;52.280;9.500;2023-08-06T12:25:13;3.90;;;2.78;;
15528;SDS011;7866;52.280;9.500;2023-08-06T12:30:16;2.13;;;1.98;;
15528;SDS011;7866;52.280;9.500;2023-08-06T12:35:18;2.67;;;2.20;;
15528;SDS011;7866;52.280;9.500;2023-08-06T12:40:20;3.80;;;2.05;;
15528;SDS011;7866;52.280;9.500;2023-08-06T12:45:24;3.65;;;2.15;;
15528;SDS011;7866;52.280;9.500;2023-08-06T12:50:26;2.70;;;2.20;;
15528;SDS011;7866;52.280;9.500;2023-08-06T12:55:27;2.28;;;2.08;;
15528;SDS011;7866;52.280;9.500;2023-08-06T13:00:30;2.58;;;2.10;;
15528;SDS011;7866;52.280;9.500;2023-08-06T13:05:32;2.22;;;2.13;;
15528;SDS011;7866;52.280;9.500;2023-08-06T13:10:34;2.33;;;2.15;;
15528;SDS011;7866;52.280;9.500;2023-08-06T13:15:37;2.30;;;2.10;;
15528;SDS011;7866;52.280;9.500;2023-08-06T13:20:39;2.75;;;2.17;;
15528;SDS011;7866;52.280;9.500;2023-08-06T13:25:41;3.28;;;2.20;;
15528;SDS011;7866;52.280;9.500;2023-08-06T13:30:44;2.45;;;2.25;;
15528;SDS011;7866;52.280;9.500;2023-08-06T13:35:46;2.50;;;2.30;;
15528;SDS011;7866;52.280;9.500;2023-08-06T13:40:48;2.97;;;2.22;;
15528;SDS011;7866;52.280;9.500;2023-08-06T13:45:51;2.30;;;2.20;;
15528;SDS011;7866;52.280;9.500;2023-08-06T13:50:52;2.10;;;2.00;;
15528;SDS011;7866;52.280;9.500;2023-08-06T13:55:54;2.13;;;2.03;;
15528;SDS011;7866;52.280;9.500;2023-08-06T14:00:57;2.45;;;2.22;;
15528;SDS011;7866;52.280;9.500;2023-08-06T14:05:59;2.20;;;2.10;;
15528;SDS011;7866;52.280;9.500;2023-08-06T14:11:01;2.60;;;2.25;;
15528;SDS011;7866;52.280;9.500;2023-08-06T14:16:04;3.15;;;2.80;;
15528;SDS011;7866;52.280;9.500;2023-08-06T14:21:05;2.15;;;1.98;;
15528;SDS011;7866;52.280;9.500;2023-08-06T14:26:07;2.50;;;2.30;;
15528;SDS011;7866;52.280;9.500;2023-08-06T14:31:12;2.58;;;2.40;;
15528;SDS011;7866;52.280;9.500;2023-08-06T14:36:13;3.00;;;2.65;;
15528;SDS011;7866;52.280;9.500;2023-08-06T14:41:15;1.98;;;1.88;;
15528;SDS011;7866;52.280;9.500;2023-08-06T14:46:18;2.85;;;2.65;;
15528;SDS011;7866;52.280;9.500;2023-08-06T14:51:19;2.47;;;2.00;;
15528;SDS011;7866;52.280;9.500;2023-08-06T14:56:21;2.38;;;2.00;;
15528;SDS011;7866;52.280;9.500;2023-08-06T15:01:24;2.10;;;2.00;;
15528;SDS011;7866;52.280;9.500;2023-08-06T15:06:26;2.80;;;2.30;;
15528;SDS011;7866;52.280;9.500;2023-08-06T15:11:28;1.80;;;1.70;;
15528;SDS011;7866;52.280;9.500;2023-08-06T15:16:31;1.85;;;1.75;;
15528;SDS011;7866;52.280;9.500;2023-08-06T15:21:34;2.38;;;1.80;;
15528;SDS011;7866;52.280;9.500;2023-08-06T15:26:35;2.10;;;1.98;;
15528;SDS011;7866;52.280;9.500;2023-08-06T15:31:38;2.22;;;2.13;;
15528;SDS011;7866;52.280;9.500;2023-08-06T15:36:40;2.08;;;1.98;;
15528;SDS011;7866;52.280;9.500;2023-08-06T15:41:42;1.98;;;1.88;;
15528;SDS011;7866;52.280;9.500;2023-08-06T15:46:45;2.08;;;1.92;;
15528;SDS011;7866;52.280;9.500;2023-08-06T15:51:47;1.95;;;1.77;;
15528;SDS011;7866;52.280;9.500;2023-08-06T15:56:48;3.17;;;2.20;;
15528;SDS011;7866;52.280;9.500;2023-08-06T16:01:51;3.00;;;2.05;;
15528;SDS011;7866;52.280;9.500;2023-08-06T16:06:54;2.95;;;2.00;;
15528;SDS011;7866;52.280;9.500;2023-08-06T16:11:55;1.80;;;1.70;;
15528;SDS011;7866;52.280;9.500;2023-08-06T16:16:58;1.80;;;1.70;;
15528;SDS011;7866;52.280;9.500;2023-08-06T16:22:00;1.88;;;1.70;;
15528;SDS011;7866;52.280;9.500;2023-08-06T16:27:01;3.28;;;1.70;;
15528;SDS011;7866;52.280;9.500;2023-08-06T16:32:05;1.52;;;1.48;;
15528;SDS011;7866;52.280;9.500;2023-08-06T16:37:07;2.55;;;1.67;;
15528;SDS011;7866;52.280;9.500;2023-08-06T16:42:10;1.80;;;1.58;;
15528;SDS011;7866;52.280;9.500;2023-08-06T16:47:13;1.63;;;1.52;;
15528;SDS011;7866;52.280;9.500;2023-08-06T16:52:15;1.60;;;1.50;;
15528;SDS011;7866;52.280;9.500;2023-08-06T16:57:17;2.85;;;1.60;;
15528;SDS011;7866;52.280;9.500;2023-08-06T17:02:20;5.28;;;1.80;;
15528;SDS011;7866;52.280;9.500;2023-08-06T17:07:21;1.48;;;1.42;;
15528;SDS011;7866;52.280;9.500;2023-08-06T17:12:23;2.38;;;2.00;;
15528;SDS011;7866;52.280;9.500;2023-08-06T17:17:27;2.58;;;1.70;;
15528;SDS011;7866;52.280;9.500;2023-08-06T17:22:28;5.40;;;1.73;;
15528;SDS011;7866;52.280;9.500;2023-08-06T17:27:30;2.35;;;2.10;;
15528;SDS011;7866;52.280;9.500;2023-08-06T17:32:33;1.70;;;1.60;;
15528;SDS011;7866;52.280;9.500;2023-08-06T17:37:36;5.80;;;1.65;;
15528;SDS011;7866;52.280;9.500;2023-08-06T17:42:37;3.17;;;1.80;;
15528;SDS011;7866;52.280;9.500;2023-08-06T17:47:40;1.48;;;1.38;;
15528;SDS011;7866;52.280;9.500;2023-08-06T17:52:42;5.63;;;1.80;;
15528;SDS011;7866;52.280;9.500;2023-08-06T17:57:44;2.22;;;1.60;;
15528;SDS011;7866;52.280;9.500;2023-08-06T18:02:47;1.80;;;1.70;;
15528;SDS011;7866;52.280;9.500;2023-08-06T18:07:48;3.28;;;2.25;;
15528;SDS011;7866;52.280;9.500;2023-08-06T18:12:50;2.78;;;1.95;;
15528;SDS011;7866;52.280;9.500;2023-08-06T18:17:53;2.60;;;1.88;;
15528;SDS011;7866;52.280;9.500;2023-08-06T18:22:55;2.33;;;2.13;;
15528;SDS011;7866;52.280;9.500;2023-08-06T18:27:56;1.75;;;1.65;;
15528;SDS011;7866;52.280;9.500;2023-08-06T18:32:59;2.22;;;1.98;;
15528;SDS011;7866;52.280;9.500;2023-08-06T18:38:02;1.98;;;1.83;;
15528;SDS011;7866;52.280;9.500;2023-08-06T18:43:04;2.60;;;1.70;;
15528;SDS011;7866;52.280;9.500;2023-08-06T18:48:09;1.90;;;1.77;;
15528;SDS011;7866;52.280;9.500;2023-08-06T18:53:11;4.97;;;1.85;;
15528;SDS011;7866;52.280;9.500;2023-08-06T18:58:12;2.03;;;1.90;;
15528;SDS011;7866;52.280;9.500;2023-08-06T19:03:15;1.95;;;1.85;;
15528;SDS011;7866;52.280;9.500;2023-08-06T19:08:17;1.70;;;1.60;;
15528;SDS011;7866;52.280;9.500;2023-08-06T19:13:20;2.00;;;1.90;;
15528;SDS011;7866;52.280;9.500;2023-08-06T19:18:23;1.70;;;1.60;;
15528;SDS011;7866;52.280;9.500;2023-08-06T19:23:24;1.83;;;1.73;;
15528;SDS011;7866;52.280;9.500;2023-08-06T19:28:27;2.13;;;1.50;;
15528;SDS011;7866;52.280;9.500;2023-08-06T19:33:30;1.80;;;1.60;;
15528;SDS011;7866;52.280;9.500;2023-08-06T19:38:32;1.90;;;1.80;;
15528;SDS011;7866;52.280;9.500;2023-08-06T19:43:34;1.70;;;1.60;;
15528;SDS011;7866;52.280;9.500;2023-08-06T19:48:37;1.70;;;1.60;;
15528;SDS011;7866;52.280;9.500;2023-08-06T19:53:39;1.70;;;1.60;;
15528;SDS011;7866;52.280;9.500;2023-08-06T19:58:42;2.42;;;1.90;;
15528;SDS011;7866;52.280;9.500;2023-08-06T20:03:45;2.33;;;1.95;;
15528;SDS011;7866;52.280;9.500;2023-08-06T20:08:47;2.22;;;2.10;;
15528;SDS011;7866;52.280;9.500;2023-08-06T20:13:49;1.95;;;1.85;;
15528;SDS011;7866;52.280;9.500;2023-08-06T20:18:52;2.55;;;2.22;;
15528;SDS011;7866;52.280;9.500;2023-08-06T20:23:53;2.17;;;2.08;;
15528;SDS011;7866;52.280;9.500;2023-08-06T20:28:55;3.08;;;1.60;;
15528;SDS011;7866;52.280;9.500;2023-08-06T20:33:59;1.70;;;1.60;;
15528;SDS011;7866;52.280;9.500;2023-08-06T20:39:00;1.90;;;1.70;;
15528;SDS011;7866;52.280;9.500;2023-08-06T20:44:02;1.50;;;1.40;;
15528;SDS011;7866;52.280;9.500;2023-08-06T20:49:05;1.90;;;1.80;;
15528;SDS011;7866;52.280;9.500;2023-08-06T20:54:07;2.30;;;2.13;;
15528;SDS011;7866;52.280;9.500;2023-08-06T20:59:08;2.00;;;1.90;;
15528;SDS011;7866;52.280;9.500;2023-08-06T21:04:11;2.35;;;2.08;;
15528;SDS011;7866;52.280;9.500;2023-08-06T21:09:13;2.63;;;2.42;;
15528;SDS011;7866;52.280;9.500;2023-08-06T21:14:15;4.53;;;2.33;;
15528;SDS011;7866;52.280;9.500;2023-08-06T21:19:18;4.78;;;3.00;;
15528;SDS011;7866;52.280;9.500;2023-08-06T21:24:19;3.15;;;2.95;;
15528;SDS011;7866;52.280;9.500;2023-08-06T21:29:21;4.82;;;3.28;;
15528;SDS011;7866;52.280;9.500;2023-08-06T21:34:24;3.08;;;2.80;;
15528;SDS011;7866;52.280;9.500;2023-08-06T21:39:26;4.15;;;2.90;;
15528;SDS011;7866;52.280;9.500;2023-08-06T21:44:29;3.67;;;3.05;;
15528;SDS011;7866;52.280;9.500;2023-08-06T21:49:32;3.90;;;3.30;;
15528;SDS011;7866;52.280;9.500;2023-08-06T21:54:35;5.03;;;3.13;;
15528;SDS011;7866;52.280;9.500;2023-08-06T21:59:36;4.05;;;3.58;;
15528;SDS011;7866;52.280;9.500;2023-08-06T22:04:40;4.80;;;4.18;;
15528;SDS011;7866;52.280;9.500;2023-08-06T22:09:41;4.30;;;4.00;;
15528;SDS011;7866;52.280;9.500;2023-08-06T22:14:43;4.60;;;4.20;;
15528;SDS011;7866;52.280;9.500;2023-08-06T22:19:46;4.72;;;4.32;;
15528;SDS011;7866;52.280;9.500;2023-08-06T22:24:47;4.07;;;3.70;;
15528;SDS011;7866;52.280;9.500;2023-08-06T22:29:49;4.47;;;3.80;;
15528;SDS011;7866;52.280;9.500;2023-08-06T22:34:52;7.93;;;4.50;;
15528;SDS011;7866;52.280;9.500;2023-08-06T22:39:54;4.30;;;4.00;;
15528;SDS011;7866;52.280;9.500;2023-08-06T22:44:59;4.75;;;4.15;;
15528;SDS011;7866;52.280;9.500;2023-08-06T22:50:02;6.18;;;4.30;;
15528;SDS011;7866;52.280;9.500;2023-08-06T22:55:04;6.30;;;4.03;;
15528;SDS011;7866;52.280;9.500;2023-08-06T23:00:07;4.63;;;3.50;;
15528;SDS011;7866;52.280;9.500;2023-08-06T23:05:10;4.25;;;3.78;;
15528;SDS011;7866;52.280;9.500;2023-08-06T23:10:12;4.13;;;3.83;;
15528;SDS011;7866;52.280;9.500;2023-08-06T23:15:14;4.88;;;4.40;;
15528;SDS011;7866;52.280;9.500;2023-08-06T23:20:17;5.97;;;4.35;;
15528;SDS011;7866;52.280;9.500;2023-08-06T23:25:18;4.57;;;4.18;;
15528;SDS011;7866;52.280;9.500;2023-08-06T23:30:20;5.00;;;4.47;;
15528;SDS011;7866;52.280;9.500;2023-08-06T23:35:23;5.03;;;4.45;;
15528;SDS011;7866;52.280;9.500;2023-08-06T23:40:25;5.38;;;4.90;;
15528;SDS011;7866;52.280;9.500;2023-08-06T23:45:27;5.18;;;4.65;;
15528;SDS011;7866;52.280;9.500;2023-08-06T23:50:30;4.72;;;4.32;;
15528;SDS011;7866;52.280;9.500;2023-08-06T23:55:32;5.15;;;4.72;;
